createdAt,value
2018-04-12T00:01:16.466Z,37.50
2018-04-12T00:03:44.627Z,40.90
2018-04-12T00:06:12.744Z,38.57
2018-04-12T00:08:40.878Z,39.60
2018-04-12T00:11:08.999Z,40.30
2018-04-12T00:13:37.277Z,40.70
2018-04-12T00:16:05.391Z,39.60
2018-04-12T00:18:33.533Z,39.63
2018-04-12T00:21:01.636Z,39.20
2018-04-12T00:23:29.787Z,38.77
2018-04-12T00:25:58.678Z,41.37
2018-04-12T00:28:27.573Z,41.63
2018-04-12T00:30:56.462Z,39.93
2018-04-12T00:33:25.366Z,41.37
2018-04-12T00:35:53.472Z,39.60
2018-04-12T00:38:21.614Z,39.60
2018-04-12T00:40:49.734Z,39.00
2018-04-12T00:43:17.870Z,39.80
2018-04-12T00:45:46.005Z,40.57
2018-04-12T00:48:14.142Z,44.77
2018-04-12T00:50:42.259Z,56.13
2018-04-12T00:53:10.462Z,51.43
2018-04-12T00:55:38.596Z,50.40
2018-04-12T00:58:06.749Z,50.23
2018-04-12T01:00:34.871Z,56.40
2018-04-12T01:03:03.047Z,56.20
2018-04-12T01:05:31.177Z,60.20
2018-04-12T01:07:59.323Z,57.47
2018-04-12T01:10:27.454Z,57.10
2018-04-12T01:12:56.356Z,55.60
2018-04-12T01:15:24.498Z,63.70
2018-04-12T01:17:52.647Z,69.93
2018-04-12T01:20:20.787Z,61.10
2018-04-12T01:22:48.929Z,59.63
2018-04-12T01:25:18.574Z,62.43
2018-04-12T01:27:46.735Z,60.87
2018-04-12T01:30:14.858Z,57.67
2018-04-12T01:32:43.067Z,59.37
2018-04-12T01:35:11.963Z,57.80
2018-04-12T01:37:40.862Z,58.97
2018-04-12T01:40:08.998Z,58.40
2018-04-12T01:42:37.109Z,54.90
2018-04-12T01:45:05.264Z,57.93
2018-04-12T01:47:34.140Z,55.53
2018-04-12T01:50:02.273Z,58.50
2018-04-12T01:52:30.388Z,52.93
2018-04-12T01:54:58.563Z,54.90
2018-04-12T01:57:26.678Z,55.57
2018-04-12T01:59:54.833Z,54.27
2018-04-12T02:02:23.718Z,57.17
2018-04-12T02:04:52.651Z,55.33
2018-04-12T02:07:20.763Z,54.97
2018-04-12T02:09:48.909Z,53.90
2018-04-12T02:12:17.150Z,56.37
2018-04-12T02:14:45.369Z,56.17
2018-04-12T02:17:13.482Z,56.83
2018-04-12T02:19:42.391Z,57.53
2018-04-12T02:22:10.517Z,58.90
2018-04-12T02:24:40.188Z,52.83
2018-04-12T02:27:08.306Z,56.07
2018-04-12T02:29:36.449Z,50.67
2018-04-12T02:32:04.572Z,55.70
2018-04-12T02:34:33.481Z,50.60
2018-04-12T02:37:01.620Z,50.87
2018-04-12T02:39:29.761Z,51.70
2018-04-12T02:41:57.876Z,52.20
2018-04-12T02:44:26.785Z,51.50
2018-04-12T02:46:55.671Z,51.87
2018-04-12T02:49:24.580Z,53.20
2018-04-12T02:51:52.734Z,50.97
2018-04-12T02:54:21.642Z,52.63
2018-04-12T02:56:49.753Z,48.17
2018-04-12T02:59:17.900Z,49.07
2018-04-12T03:01:46.026Z,47.33
2018-04-12T03:04:14.164Z,50.60
2018-04-12T03:06:42.274Z,50.57
2018-04-12T03:09:10.417Z,48.10
2018-04-12T03:11:38.540Z,47.50
2018-04-12T03:14:07.446Z,52.50
2018-04-12T03:16:35.567Z,49.37
2018-04-12T03:19:03.708Z,48.03
2018-04-12T03:21:31.820Z,49.73
2018-04-12T03:23:59.974Z,50.40
2018-04-12T03:26:28.087Z,50.90
2018-04-12T03:28:57.001Z,50.40
2018-04-12T03:31:25.116Z,49.33
2018-04-12T03:33:53.270Z,48.30
2018-04-12T03:36:21.399Z,49.23
2018-04-12T03:38:50.302Z,50.33
2018-04-12T03:41:18.434Z,49.30
2018-04-12T03:43:46.579Z,51.97
2018-04-12T03:46:14.694Z,49.90
2018-04-12T03:48:42.906Z,49.53
2018-04-12T03:51:10.978Z,49.17
2018-04-12T03:53:39.127Z,53.43
2018-04-12T03:56:08.012Z,48.77
2018-04-12T03:58:36.150Z,49.53
2018-04-12T04:01:04.290Z,51.97
2018-04-12T04:03:32.441Z,52.20
2018-04-12T04:06:01.327Z,49.00
2018-04-12T04:08:30.250Z,58.08
2018-04-12T04:10:58.391Z,51.43
2018-04-12T04:13:26.547Z,50.10
2018-04-12T04:16:06.570Z,53.23
2018-04-12T04:18:46.605Z,50.53
2018-04-12T04:21:14.721Z,51.50
2018-04-12T04:23:42.861Z,51.43
2018-04-12T04:26:10.977Z,49.20
2018-04-12T04:28:39.102Z,50.90
2018-04-12T04:31:08.097Z,49.87
2018-04-12T04:33:36.212Z,50.60
2018-04-12T04:36:04.392Z,53.93
2018-04-12T04:38:32.511Z,52.90
2018-04-12T04:41:00.654Z,51.93
2018-04-12T04:43:28.769Z,51.37
2018-04-12T04:45:56.909Z,51.43
2018-04-12T04:48:25.788Z,54.17
2018-04-12T04:50:53.947Z,50.33
2018-04-12T04:53:22.057Z,52.10
2018-04-12T04:55:50.962Z,53.23
2018-04-12T04:58:19.082Z,52.37
2018-04-12T05:00:47.210Z,51.50
2018-04-12T05:03:15.338Z,56.83
2018-04-12T05:05:43.480Z,55.83
2018-04-12T05:08:11.611Z,53.70
2018-04-12T05:10:40.206Z,53.33
2018-04-12T05:13:08.326Z,49.97
2018-04-12T05:15:36.556Z,51.80
2018-04-12T05:18:04.620Z,47.57
2018-04-12T05:20:32.769Z,49.60
2018-04-12T05:23:01.423Z,50.00
2018-04-12T05:25:30.035Z,51.03
2018-04-12T05:27:58.183Z,50.43
2018-04-12T05:30:26.337Z,47.97
2018-04-12T05:32:54.456Z,50.73
2018-04-12T05:35:22.596Z,48.90
2018-04-12T05:37:50.709Z,46.97
2018-04-12T05:40:18.893Z,53.50
2018-04-12T05:42:46.999Z,48.63
2018-04-12T05:45:15.127Z,52.90
2018-04-12T05:47:43.773Z,50.17
2018-04-12T05:50:11.931Z,52.00
2018-04-12T05:52:40.055Z,50.00
2018-04-12T05:55:08.990Z,49.23
2018-04-12T05:57:37.108Z,47.40
2018-04-12T06:00:05.242Z,46.30
2018-04-12T06:02:36.038Z,47.03
2018-04-12T06:05:04.202Z,48.13
2018-04-12T06:07:32.315Z,47.03
2018-04-12T06:10:00.577Z,45.57
2018-04-12T06:12:28.728Z,44.90
2018-04-12T06:14:56.893Z,45.93
2018-04-12T06:17:25.015Z,46.40
2018-04-12T06:19:53.154Z,43.67
2018-04-12T06:22:21.275Z,47.43
2018-04-12T06:24:49.432Z,43.30
2018-04-12T06:27:17.563Z,43.73
2018-04-12T06:29:45.695Z,47.03
2018-04-12T06:32:13.824Z,46.10
2018-04-12T06:34:42.474Z,48.57
2018-04-12T06:37:10.595Z,47.13
2018-04-12T06:39:39.506Z,46.60
2018-04-12T06:42:07.623Z,46.53
2018-04-12T06:44:35.766Z,43.77
2018-04-12T06:47:03.889Z,46.90
2018-04-12T06:49:32.030Z,45.77
2018-04-12T06:52:00.970Z,42.90
2018-04-12T06:54:29.890Z,43.13
2018-04-12T06:56:58.026Z,44.93
2018-04-12T06:59:26.909Z,45.83
2018-04-12T07:01:55.436Z,43.73
2018-04-12T07:04:24.538Z,45.67
2018-04-12T07:06:52.806Z,42.43
2018-04-12T07:09:20.962Z,42.33
2018-04-12T07:11:49.878Z,43.73
2018-04-12T07:14:18.001Z,43.20
2018-04-12T07:16:46.124Z,43.10
2018-04-12T07:19:14.291Z,44.10
2018-04-12T07:21:42.409Z,39.83
2018-04-12T07:24:10.548Z,45.57
2018-04-12T07:26:38.677Z,40.57
2018-04-12T07:29:07.638Z,41.20
2018-04-12T07:31:35.764Z,41.90
2018-04-12T07:34:04.632Z,41.27
2018-04-12T07:36:32.766Z,40.63
2018-04-12T07:39:00.878Z,42.97
2018-04-12T07:41:29.786Z,41.23
2018-04-12T07:43:58.667Z,38.27
2018-04-12T07:46:27.590Z,39.30
2018-04-12T07:48:55.711Z,38.77
2018-04-12T07:51:23.849Z,39.37
2018-04-12T07:53:51.990Z,40.23
2018-04-12T07:56:21.487Z,38.53
2018-04-12T07:58:49.514Z,39.43
2018-04-12T08:01:17.772Z,39.13
2018-04-12T08:03:45.904Z,39.47
2018-04-12T08:06:14.811Z,39.87
2018-04-12T08:08:42.929Z,43.73
2018-04-12T08:11:11.064Z,37.73
2018-04-12T08:13:39.172Z,38.20
2018-04-12T08:16:07.373Z,38.20
2018-04-12T08:18:35.490Z,37.03
2018-04-12T08:21:03.640Z,37.60
2018-04-12T08:23:33.713Z,37.67
2018-04-12T08:26:02.758Z,36.17
2018-04-12T08:28:31.640Z,37.50
2018-04-12T08:31:00.546Z,36.90
2018-04-12T08:33:29.419Z,32.57
2018-04-12T08:35:58.438Z,32.70
2018-04-12T08:38:26.552Z,32.37
2018-04-12T08:40:54.687Z,32.07
2018-04-12T08:43:22.799Z,32.37
2018-04-12T08:45:50.966Z,33.80
2018-04-12T08:48:19.088Z,33.47
2018-04-12T08:50:47.998Z,35.10
2018-04-12T08:53:16.228Z,33.73
2018-04-12T08:55:44.358Z,34.50
2018-04-12T08:58:12.468Z,34.83
2018-04-12T09:00:40.634Z,35.63
2018-04-12T09:03:09.250Z,36.17
2018-04-12T09:05:38.151Z,36.50
2018-04-12T09:08:07.046Z,36.40
2018-04-12T09:10:35.945Z,39.30
2018-04-12T09:13:04.052Z,39.63
2018-04-12T09:15:32.193Z,38.70
2018-04-12T09:18:00.350Z,38.43
2018-04-12T09:20:28.483Z,38.40
2018-04-12T09:22:56.610Z,40.97
2018-04-12T09:25:26.096Z,39.03
2018-04-12T09:27:54.889Z,41.33
2018-04-12T09:30:23.790Z,41.23
2018-04-12T09:32:53.828Z,41.57
2018-04-12T09:35:23.867Z,41.50
2018-04-12T09:37:53.419Z,42.60
2018-04-12T09:40:21.557Z,42.70
2018-04-12T09:42:49.679Z,42.40
2018-04-12T09:45:18.552Z,41.47
2018-04-12T09:47:46.698Z,43.07
2018-04-12T09:50:14.812Z,43.67
2018-04-12T09:52:43.728Z,45.70
2018-04-12T09:55:11.846Z,44.03
2018-04-12T09:57:40.000Z,46.07
2018-04-12T10:00:08.127Z,46.10
2018-04-12T10:02:42.427Z,45.80
2018-04-12T10:05:10.532Z,44.60
2018-04-12T10:07:44.329Z,45.40
2018-04-12T10:10:13.222Z,42.20
2018-04-12T10:12:42.110Z,43.63
2018-04-12T10:15:10.994Z,48.03
2018-04-12T10:17:39.907Z,44.77
2018-04-12T10:20:08.067Z,45.50
2018-04-12T10:22:36.993Z,45.23
2018-04-12T10:25:05.119Z,46.00
2018-04-12T10:27:33.257Z,46.30
2018-04-12T10:30:01.384Z,45.43
2018-04-12T10:32:30.277Z,44.00
2018-04-12T10:34:58.398Z,45.13
2018-04-12T10:37:26.534Z,44.70
2018-04-12T10:39:54.649Z,44.83
2018-04-12T10:42:22.789Z,44.40
2018-04-12T10:44:50.900Z,44.37
2018-04-12T10:47:19.108Z,42.30
2018-04-12T10:49:47.997Z,43.97
2018-04-12T10:52:16.903Z,43.37
2018-04-12T10:54:45.013Z,44.47
2018-04-12T10:57:13.145Z,43.30
2018-04-12T10:59:41.267Z,42.17
2018-04-12T11:02:09.403Z,43.43
2018-04-12T11:04:37.533Z,42.97
2018-04-12T11:07:05.679Z,39.23
2018-04-12T11:09:33.792Z,41.27
2018-04-12T11:12:02.692Z,40.00
2018-04-12T11:14:31.565Z,40.87
2018-04-12T11:16:59.693Z,41.30
2018-04-12T11:19:27.804Z,40.43
2018-04-12T11:21:56.293Z,40.90
2018-04-12T11:24:25.002Z,41.47
2018-04-12T11:26:53.898Z,43.00
2018-04-12T11:29:22.049Z,41.60
2018-04-12T11:31:50.172Z,42.33
2018-04-12T11:34:18.321Z,39.63
2018-04-12T11:36:47.209Z,41.77
2018-04-12T11:39:15.331Z,41.77
2018-04-12T11:41:43.460Z,41.17
2018-04-12T11:44:11.571Z,41.53
2018-04-12T11:46:40.846Z,43.13
2018-04-12T11:49:08.962Z,41.30
2018-04-12T11:51:37.108Z,43.27
2018-04-12T11:54:05.221Z,41.47
2018-04-12T11:56:33.357Z,42.80
2018-04-12T11:59:01.487Z,42.80
2018-04-12T12:01:30.395Z,45.00
2018-04-12T12:03:58.508Z,42.53
2018-04-12T12:06:27.435Z,43.97
2018-04-12T12:08:55.554Z,43.90
2018-04-12T12:11:23.788Z,43.80
2018-04-12T12:13:54.792Z,45.77
2018-04-12T12:16:22.855Z,48.67
2018-04-12T12:18:50.957Z,47.03
2018-04-12T12:21:19.146Z,46.77
2018-04-12T12:23:47.361Z,45.93
2018-04-12T12:26:16.223Z,46.00
2018-04-12T12:28:46.336Z,47.17
2018-04-12T12:31:14.469Z,45.70
2018-04-12T12:33:42.602Z,46.17
2018-04-12T12:36:10.767Z,48.23
2018-04-12T12:38:39.696Z,46.70
2018-04-12T12:41:09.783Z,45.77
2018-04-12T12:43:42.357Z,44.00
2018-04-12T12:46:13.467Z,45.57
2018-04-12T12:48:43.763Z,44.57
2018-04-12T12:51:11.882Z,42.97
2018-04-12T12:53:40.024Z,42.27
2018-04-12T12:56:08.210Z,43.07
2018-04-12T12:58:36.923Z,44.50
2018-04-12T13:01:05.042Z,45.40
2018-04-12T13:03:33.179Z,45.03
2018-04-12T13:06:09.000Z,43.80
2018-04-12T13:08:37.133Z,46.37
2018-04-12T13:11:05.255Z,46.60
2018-04-12T13:13:33.389Z,48.40
2018-04-12T13:16:01.499Z,45.23
2018-04-12T13:18:29.625Z,46.73
2018-04-12T13:20:57.731Z,42.93
2018-04-12T13:23:25.884Z,45.50
2018-04-12T13:25:54.000Z,44.20
2018-04-12T13:28:22.148Z,44.53
2018-04-12T13:30:50.306Z,41.40
2018-04-12T13:33:18.473Z,42.73
2018-04-12T13:35:46.578Z,42.93
2018-04-12T13:38:14.708Z,40.00
2018-04-12T13:40:44.520Z,43.17
2018-04-12T13:43:12.653Z,41.13
2018-04-12T13:45:40.774Z,41.90
2018-04-12T13:48:08.907Z,41.87
2018-04-12T13:50:37.021Z,40.17
2018-04-12T13:53:05.157Z,39.47
2018-04-12T13:55:33.287Z,35.83
2018-04-12T13:58:01.505Z,38.70
2018-04-12T14:00:30.407Z,38.07
2018-04-12T14:02:58.533Z,37.90
2018-04-12T14:05:26.655Z,38.23
2018-04-12T14:07:54.791Z,38.73
2018-04-12T14:10:22.914Z,36.10
2018-04-12T14:12:51.829Z,37.33
2018-04-12T14:15:19.939Z,37.70
2018-04-12T14:17:48.073Z,37.37
2018-04-12T14:20:16.182Z,37.87
2018-04-12T14:22:44.318Z,38.80
2018-04-12T14:25:12.429Z,35.60
2018-04-12T14:27:40.570Z,36.40
2018-04-12T14:30:08.693Z,35.90
2018-04-12T14:32:36.832Z,34.40
2018-04-12T14:35:04.943Z,36.20
2018-04-12T14:37:33.083Z,37.00
2018-04-12T14:40:01.221Z,33.50
2018-04-12T14:42:29.369Z,34.23
2018-04-12T14:44:57.487Z,32.20
2018-04-12T14:47:25.706Z,31.27
2018-04-12T14:49:53.795Z,32.37
2018-04-12T14:52:21.941Z,29.63
2018-04-12T14:54:50.081Z,30.20
2018-04-12T14:57:18.245Z,28.63
2018-04-12T14:59:46.358Z,29.40
2018-04-12T15:02:14.490Z,24.87
2018-04-12T15:04:42.801Z,28.10
2018-04-12T15:07:10.945Z,27.43
2018-04-12T15:09:39.070Z,27.33
2018-04-12T15:12:07.203Z,27.70
2018-04-12T15:14:36.569Z,25.13
2018-04-12T15:17:05.720Z,26.67
2018-04-12T15:19:33.824Z,25.37
2018-04-12T15:22:02.020Z,24.97
2018-04-12T15:24:31.448Z,26.37
2018-04-12T15:26:59.595Z,24.87
2018-04-12T15:29:29.818Z,24.67
2018-04-12T15:31:57.971Z,26.70
2018-04-12T15:34:26.114Z,25.03
2018-04-12T15:36:54.216Z,25.80
2018-04-12T15:39:22.350Z,24.80
2018-04-12T15:41:51.289Z,23.80
2018-04-12T15:44:19.445Z,23.87
2018-04-12T15:46:47.570Z,23.00
2018-04-12T15:49:15.807Z,25.07
2018-04-12T15:51:44.008Z,24.60
2018-04-12T15:54:12.906Z,23.57
2018-04-12T15:56:41.031Z,23.63
2018-04-12T15:59:09.158Z,23.87
2018-04-12T16:01:37.269Z,23.13
2018-04-12T16:04:05.449Z,21.50
2018-04-12T16:06:33.591Z,22.27
2018-04-12T16:09:01.773Z,22.40
2018-04-12T16:11:30.324Z,22.10
2018-04-12T16:13:59.722Z,21.33
2018-04-12T16:16:28.600Z,23.17
2018-04-12T16:18:56.734Z,24.20
2018-04-12T16:21:24.859Z,22.13
2018-04-12T16:23:53.878Z,23.00
2018-04-12T16:26:22.006Z,22.63
2018-04-12T16:28:50.147Z,22.17
2018-04-12T16:31:19.146Z,21.60
2018-04-12T16:33:47.380Z,22.20
2018-04-12T16:36:16.266Z,22.80
2018-04-12T16:38:45.168Z,21.70
2018-04-12T16:41:14.151Z,20.70
2018-04-12T16:43:43.056Z,20.60
2018-04-12T16:46:11.853Z,20.10
2018-04-12T16:48:39.997Z,20.97
2018-04-12T16:51:08.114Z,19.30
2018-04-12T16:53:36.257Z,19.20
2018-04-12T16:56:05.134Z,17.67
2018-04-12T16:58:33.262Z,18.83
2018-04-12T17:01:01.411Z,18.33
2018-04-12T17:03:29.529Z,19.57
2018-04-12T17:05:57.656Z,18.37
2018-04-12T17:08:25.790Z,18.53
2018-04-12T17:10:53.931Z,17.67
2018-04-12T17:13:22.045Z,16.30
2018-04-12T17:15:50.187Z,17.70
2018-04-12T17:18:18.293Z,26.47
2018-04-12T17:20:46.434Z,19.33
2018-04-12T17:23:14.549Z,20.20
2018-04-12T17:25:43.453Z,18.90
2018-04-12T17:28:12.333Z,18.50
2018-04-12T17:30:41.239Z,19.13
2018-04-12T17:33:09.378Z,17.47
2018-04-12T17:35:37.512Z,19.67
2018-04-12T17:38:05.706Z,17.70
2018-04-12T17:40:33.846Z,22.30
2018-04-12T17:43:01.957Z,17.47
2018-04-12T17:45:30.472Z,17.43
2018-04-12T17:47:59.351Z,18.43
2018-04-12T17:50:27.503Z,19.20
2018-04-12T17:52:55.612Z,19.93
2018-04-12T17:55:24.514Z,19.57
2018-04-12T17:57:53.412Z,17.60
2018-04-12T18:00:21.547Z,18.10
2018-04-12T18:02:49.717Z,20.40
2018-04-12T18:05:17.848Z,21.50
2018-04-12T18:07:45.960Z,19.37
2018-04-12T18:10:14.121Z,19.47
2018-04-12T18:12:42.243Z,19.37
2018-04-12T18:15:11.151Z,19.90
2018-04-12T18:17:39.265Z,19.43
2018-04-12T18:20:07.402Z,19.00
2018-04-12T18:22:35.523Z,17.90
2018-04-12T18:25:04.339Z,19.37
2018-04-12T18:27:33.520Z,19.43
2018-04-12T18:30:01.654Z,18.73
2018-04-12T18:32:30.984Z,18.27
2018-04-12T18:35:00.018Z,18.63
2018-04-12T18:37:28.982Z,16.73
2018-04-12T18:39:57.138Z,17.67
2018-04-12T18:42:25.245Z,17.07
2018-04-12T18:44:54.155Z,18.47
2018-04-12T18:47:22.295Z,17.73
2018-04-12T18:49:50.437Z,18.37
2018-04-12T18:52:18.552Z,18.67
2018-04-12T18:54:47.436Z,18.47
2018-04-12T18:57:15.573Z,17.80
2018-04-12T18:59:43.693Z,19.07
2018-04-12T19:02:12.594Z,18.20
2018-04-12T19:04:41.482Z,18.73
2018-04-12T19:07:10.396Z,18.93
2018-04-12T19:09:38.505Z,17.80
2018-04-12T19:12:06.649Z,18.60
2018-04-12T19:14:34.767Z,18.93
2018-04-12T19:17:02.920Z,18.33
2018-04-12T19:19:31.024Z,18.00
2018-04-12T19:21:59.175Z,17.67
2018-04-12T19:24:27.275Z,18.93
2018-04-12T19:26:56.363Z,18.37
2018-04-12T19:29:24.473Z,19.67
2018-04-12T19:31:52.622Z,17.40
2018-04-12T19:34:21.501Z,17.93
2018-04-12T19:36:49.640Z,17.67
2018-04-12T19:39:17.770Z,16.13
2018-04-12T19:41:46.661Z,16.27
2018-04-12T19:44:15.586Z,16.67
2018-04-12T19:46:43.730Z,15.83
2018-04-12T19:49:11.851Z,15.57
2018-04-12T19:51:39.981Z,14.70
2018-04-12T19:54:08.095Z,15.50
2018-04-12T19:56:36.247Z,17.37
2018-04-12T19:59:04.347Z,18.67
2018-04-12T20:01:32.501Z,18.83
2018-04-12T20:04:00.626Z,17.43
2018-04-12T20:06:29.542Z,17.83
2018-04-12T20:08:57.776Z,17.27
2018-04-12T20:11:25.913Z,17.57
2018-04-12T20:13:54.065Z,17.70
2018-04-12T20:16:22.212Z,18.10
2018-04-12T20:18:51.098Z,16.20
2018-04-12T20:21:19.235Z,16.77
2018-04-12T20:23:47.355Z,17.60
2018-04-12T20:26:16.265Z,17.30
2018-04-12T20:28:44.383Z,18.33
2018-04-12T20:31:12.518Z,17.50
2018-04-12T20:33:40.629Z,18.10
2018-04-12T20:36:08.770Z,19.20
2018-04-12T20:38:36.890Z,18.40
2018-04-12T20:41:05.029Z,17.70
2018-04-12T20:43:33.151Z,16.53
2018-04-12T20:46:02.060Z,17.20
2018-04-12T20:48:30.947Z,16.27
2018-04-12T20:50:59.848Z,15.37
2018-04-12T20:53:27.958Z,15.60
2018-04-12T20:55:56.092Z,14.43
2018-04-12T20:58:24.201Z,15.70
2018-04-12T21:00:52.805Z,15.83
2018-04-12T21:03:20.921Z,16.00
2018-04-12T21:05:49.811Z,17.10
2018-04-12T21:08:18.050Z,17.20
2018-04-12T21:10:46.869Z,18.17
2018-04-12T21:13:15.769Z,18.37
2018-04-12T21:15:44.655Z,18.50
2018-04-12T21:18:13.538Z,18.23
2018-04-12T21:20:42.451Z,17.60
2018-04-12T21:23:10.570Z,18.43
2018-04-12T21:25:38.710Z,16.80
2018-04-12T21:28:06.854Z,15.10
2018-04-12T21:30:35.739Z,15.40
2018-04-12T21:33:04.651Z,18.43
2018-04-12T21:35:32.767Z,16.23
2018-04-12T21:38:00.913Z,15.50
2018-04-12T21:40:29.036Z,16.10
2018-04-12T21:42:57.161Z,17.57
2018-04-12T21:45:25.287Z,17.80
2018-04-12T21:47:53.438Z,18.57
2018-04-12T21:50:21.558Z,21.50
2018-04-12T21:52:49.712Z,19.70
2018-04-12T21:55:18.590Z,20.70
2018-04-12T21:57:46.739Z,21.43
2018-04-12T22:00:14.862Z,21.77
2018-04-12T22:02:42.994Z,20.67
2018-04-12T22:05:11.110Z,21.10
2018-04-12T22:07:40.000Z,22.50
2018-04-12T22:10:08.888Z,21.00
2018-04-12T22:12:37.788Z,22.30
2018-04-12T22:15:06.680Z,22.23
2018-04-12T22:17:34.832Z,24.73
2018-04-12T22:20:02.945Z,24.10
2018-04-12T22:22:31.122Z,23.53
2018-04-12T22:24:59.317Z,23.30
2018-04-12T22:27:27.502Z,23.80
2018-04-12T22:29:55.610Z,23.70
2018-04-12T22:32:24.533Z,23.67
2018-04-12T22:34:52.640Z,23.03
2018-04-12T22:37:21.563Z,24.20
2018-04-12T22:39:49.682Z,23.03
2018-04-12T22:42:17.815Z,23.80
2018-04-12T22:44:46.693Z,24.30
2018-04-12T22:47:14.836Z,25.07
2018-04-12T22:49:42.951Z,25.63
2018-04-12T22:52:11.857Z,21.83
2018-04-12T22:54:40.742Z,17.97
2018-04-12T22:57:09.659Z,10.23
2018-04-12T22:59:37.770Z,6.23
2018-04-12T23:02:06.679Z,5.43
2018-04-12T23:04:34.791Z,5.20
2018-04-12T23:07:02.933Z,3.77
2018-04-12T23:09:31.050Z,3.30
2018-04-12T23:11:59.258Z,3.97
2018-04-12T23:14:27.374Z,3.33
2018-04-12T23:16:55.519Z,3.30
2018-04-12T23:19:23.616Z,3.43
2018-04-12T23:21:51.752Z,3.20
2018-04-12T23:24:19.874Z,3.30
2018-04-12T23:26:48.008Z,3.20
2018-04-12T23:29:16.113Z,3.47
2018-04-12T23:31:44.246Z,3.57
2018-04-12T23:34:12.344Z,3.20
2018-04-12T23:36:40.494Z,3.10
2018-04-12T23:39:08.607Z,3.60
2018-04-12T23:41:36.737Z,3.20
2018-04-12T23:44:04.846Z,3.40
2018-04-12T23:46:33.728Z,3.30
2018-04-12T23:49:02.617Z,3.47
2018-04-12T23:51:31.526Z,3.87
2018-04-12T23:53:59.624Z,3.90
2018-04-12T23:56:27.787Z,4.53
2018-04-12T23:58:55.902Z,4.17
